createdAt,value
2018-05-23T00:00:27.109Z,46.33
2018-05-23T00:02:53.608Z,46.22
2018-05-23T00:05:20.191Z,46.18
2018-05-23T00:07:46.598Z,46.37
2018-05-23T00:10:13.291Z,46.36
2018-05-23T00:12:40.452Z,46.30
2018-05-23T00:15:07.156Z,46.41
2018-05-23T00:17:33.624Z,46.33
2018-05-23T00:20:00.651Z,46.43
2018-05-23T00:22:27.291Z,46.42
2018-05-23T00:24:53.674Z,46.26
2018-05-23T00:27:20.604Z,46.38
2018-05-23T00:29:47.411Z,46.48
2018-05-23T00:32:14.148Z,46.50
2018-05-23T00:34:40.514Z,46.53
2018-05-23T00:37:06.879Z,46.59
2018-05-23T00:39:33.358Z,46.38
2018-05-23T00:41:59.962Z,46.45
2018-05-23T00:44:26.534Z,46.52
2018-05-23T00:46:52.903Z,46.51
2018-05-23T00:49:19.257Z,46.46
2018-05-23T00:51:45.883Z,46.53
2018-05-23T00:54:12.364Z,46.49
2018-05-23T00:56:38.735Z,46.56
2018-05-23T00:59:05.697Z,46.66
2018-05-23T01:01:32.318Z,46.47
2018-05-23T01:03:58.719Z,46.58
2018-05-23T01:06:25.160Z,46.79
2018-05-23T01:08:51.523Z,47.02
2018-05-23T01:11:17.953Z,46.94
2018-05-23T01:13:44.343Z,47.29
2018-05-23T01:16:10.816Z,47.26
2018-05-23T01:18:37.344Z,47.38
2018-05-23T01:21:03.704Z,47.50
2018-05-23T01:23:30.060Z,47.52
2018-05-23T01:25:56.402Z,47.56
2018-05-23T01:28:22.936Z,47.53
2018-05-23T01:30:49.481Z,47.59
2018-05-23T01:33:15.864Z,47.57
2018-05-23T01:35:42.206Z,47.67
2018-05-23T01:38:08.586Z,47.70
2018-05-23T01:40:35.060Z,47.61
2018-05-23T01:43:01.461Z,47.57
2018-05-23T01:45:27.847Z,47.61
2018-05-23T01:47:54.197Z,47.65
2018-05-23T01:50:20.618Z,47.65
2018-05-23T01:52:46.999Z,47.75
2018-05-23T01:55:13.459Z,47.71
2018-05-23T01:57:39.952Z,47.94
2018-05-23T02:00:06.409Z,47.81
2018-05-23T02:02:32.905Z,47.95
2018-05-23T02:04:59.339Z,47.92
2018-05-23T02:07:25.683Z,47.78
2018-05-23T02:09:52.295Z,47.95
2018-05-23T02:12:19.569Z,47.90
2018-05-23T02:14:45.945Z,47.89
2018-05-23T02:17:12.320Z,47.87
2018-05-23T02:19:38.644Z,47.94
2018-05-23T02:22:05.037Z,47.92
2018-05-23T02:24:31.544Z,47.87
2018-05-23T02:26:58.951Z,47.97
2018-05-23T02:29:25.398Z,47.92
2018-05-23T02:31:51.758Z,47.99
2018-05-23T02:34:18.153Z,48.07
2018-05-23T02:36:45.183Z,47.96
2018-05-23T02:41:43.988Z,47.98
2018-05-23T02:44:10.386Z,48.07
2018-05-23T02:46:37.129Z,47.98
2018-05-23T02:49:03.654Z,48.08
2018-05-23T02:51:29.987Z,47.99
2018-05-23T02:53:56.469Z,48.14
2018-05-23T02:56:22.792Z,48.09
2018-05-23T02:58:49.590Z,48.07
2018-05-23T03:01:16.014Z,48.09
2018-05-23T03:03:42.345Z,48.15
2018-05-23T03:06:08.665Z,48.17
2018-05-23T03:08:35.051Z,48.01
2018-05-23T03:11:01.531Z,48.11
2018-05-23T03:13:28.117Z,48.15
2018-05-23T03:15:54.509Z,48.08
2018-05-23T03:18:20.875Z,48.07
2018-05-23T03:20:47.339Z,48.14
2018-05-23T03:23:13.750Z,48.25
2018-05-23T03:25:40.483Z,48.16
2018-05-23T03:28:06.817Z,48.24
2018-05-23T03:30:33.226Z,48.06
2018-05-23T03:32:59.560Z,48.07
2018-05-23T03:35:26.027Z,48.05
2018-05-23T03:37:52.635Z,48.02
2018-05-23T03:40:19.040Z,47.98
2018-05-23T03:42:45.359Z,47.89
2018-05-23T03:45:11.716Z,47.65
2018-05-23T03:47:38.087Z,47.55
2018-05-23T03:50:04.528Z,47.43
2018-05-23T03:52:30.950Z,47.23
2018-05-23T03:54:57.280Z,47.04
2018-05-23T03:57:23.612Z,46.94
2018-05-23T03:59:49.981Z,46.87
2018-05-23T04:02:16.593Z,46.71
2018-05-23T04:04:43.079Z,46.74
2018-05-23T04:07:09.386Z,46.47
2018-05-23T04:09:35.727Z,46.34
2018-05-23T04:12:02.153Z,46.25
2018-05-23T04:14:28.516Z,46.20
2018-05-23T04:16:54.841Z,46.04
2018-05-23T04:19:21.221Z,45.96
2018-05-23T04:21:47.576Z,45.82
2018-05-23T04:24:14.000Z,45.74
2018-05-23T04:26:40.352Z,45.75
2018-05-23T04:29:06.732Z,45.66
2018-05-23T04:31:33.096Z,45.61
2018-05-23T04:33:59.461Z,45.61
2018-05-23T04:36:25.829Z,45.54
2018-05-23T04:38:52.227Z,45.53
2018-05-23T04:41:18.556Z,45.31
2018-05-23T04:43:44.901Z,45.42
2018-05-23T04:46:11.438Z,45.35
2018-05-23T04:48:37.959Z,45.21
2018-05-23T04:51:04.359Z,45.37
2018-05-23T04:53:30.944Z,45.21
2018-05-23T04:55:57.705Z,45.42
2018-05-23T04:58:24.043Z,45.43
2018-05-23T05:00:50.433Z,45.24
2018-05-23T05:03:17.033Z,45.13
2018-05-23T05:05:43.694Z,45.41
2018-05-23T05:08:10.450Z,45.22
2018-05-23T05:10:37.449Z,45.38
2018-05-23T05:13:04.163Z,45.30
2018-05-23T05:15:30.695Z,45.26
2018-05-23T05:17:57.226Z,45.22
2018-05-23T05:20:23.889Z,45.19
2018-05-23T05:22:50.273Z,45.23
2018-05-23T05:25:16.901Z,45.15
2018-05-23T05:27:43.491Z,45.31
2018-05-23T05:30:10.481Z,45.37
2018-05-23T05:32:37.327Z,45.31
2018-05-23T05:35:03.961Z,45.20
2018-05-23T05:37:30.551Z,45.22
2018-05-23T05:39:57.024Z,45.14
2018-05-23T05:42:23.379Z,45.05
2018-05-23T05:44:49.747Z,45.13
2018-05-23T05:47:16.147Z,45.07
2018-05-23T05:49:42.610Z,45.27
2018-05-23T05:52:09.075Z,45.12
2018-05-23T05:54:35.438Z,45.18
2018-05-23T05:57:02.010Z,45.18
2018-05-23T05:59:28.540Z,45.18
2018-05-23T06:01:55.271Z,45.23
2018-05-23T06:04:21.962Z,44.97
2018-05-23T06:06:48.490Z,45.04
2018-05-23T06:09:14.871Z,45.09
2018-05-23T06:11:41.224Z,45.18
2018-05-23T06:14:08.790Z,45.25
2018-05-23T06:16:35.627Z,45.18
2018-05-23T06:19:02.469Z,45.15
2018-05-23T06:21:28.974Z,45.13
2018-05-23T06:23:55.366Z,45.01
2018-05-23T06:26:22.134Z,45.06
2018-05-23T06:28:48.672Z,45.13
2018-05-23T06:31:15.150Z,45.37
2018-05-23T06:33:41.779Z,45.24
2018-05-23T06:36:08.329Z,45.09
2018-05-23T06:38:34.842Z,45.40
2018-05-23T06:41:01.428Z,45.23
2018-05-23T06:43:28.139Z,45.35
2018-05-23T06:45:54.728Z,45.43
2018-05-23T06:48:21.477Z,45.39
2018-05-23T06:50:48.989Z,45.37
2018-05-23T06:53:15.544Z,44.98
2018-05-23T06:55:42.115Z,45.16
2018-05-23T06:58:08.763Z,45.32
2018-05-23T07:00:35.228Z,45.41
2018-05-23T07:03:01.786Z,45.32
2018-05-23T07:05:28.537Z,45.38
2018-05-23T07:07:55.132Z,45.23
2018-05-23T07:10:21.578Z,45.24
2018-05-23T07:12:48.142Z,45.28
2018-05-23T07:15:14.791Z,44.74
2018-05-23T07:17:41.395Z,45.00
2018-05-23T07:20:07.828Z,45.22
2018-05-23T07:22:34.435Z,44.96
2018-05-23T07:25:01.380Z,45.01
2018-05-23T07:27:28.026Z,44.71
2018-05-23T07:29:54.593Z,44.81
2018-05-23T07:32:21.313Z,44.91
2018-05-23T07:34:47.971Z,44.88
2018-05-23T07:37:14.438Z,44.81
2018-05-23T07:39:41.154Z,44.79
2018-05-23T07:42:07.929Z,45.16
2018-05-23T07:44:34.515Z,45.25
2018-05-23T07:47:01.167Z,45.16
2018-05-23T07:49:27.739Z,45.26
2018-05-23T07:51:54.222Z,45.31
2018-05-23T07:54:20.829Z,45.17
2018-05-23T07:56:47.455Z,45.10
2018-05-23T07:59:14.228Z,45.01
2018-05-23T08:01:41.179Z,45.13
2018-05-23T08:04:08.168Z,45.14
2018-05-23T08:06:34.957Z,45.07
2018-05-23T08:09:02.484Z,44.87
2018-05-23T08:11:29.004Z,45.22
2018-05-23T08:13:55.468Z,45.24
2018-05-23T08:16:21.831Z,44.87
2018-05-23T08:18:48.645Z,44.70
2018-05-23T08:21:15.428Z,44.84
2018-05-23T08:23:41.891Z,44.92
2018-05-23T08:26:08.406Z,44.92
2018-05-23T08:28:34.984Z,44.56
2018-05-23T08:31:02.692Z,44.80
2018-05-23T08:33:29.550Z,44.96
2018-05-23T08:35:57.142Z,44.86
2018-05-23T08:38:23.958Z,45.14
2018-05-23T08:43:29.571Z,44.84
2018-05-23T08:45:56.635Z,45.12
2018-05-23T08:48:23.369Z,45.29
2018-05-23T08:50:50.403Z,44.89
2018-05-23T08:53:17.069Z,45.22
2018-05-23T08:55:43.536Z,45.17
2018-05-23T08:58:10.064Z,44.94
2018-05-23T09:00:37.891Z,44.77
2018-05-23T09:03:04.638Z,44.66
2018-05-23T09:05:31.195Z,44.81
2018-05-23T09:07:57.687Z,44.66
2018-05-23T09:10:24.213Z,45.06
2018-05-23T09:12:50.628Z,45.08
2018-05-23T09:15:17.061Z,44.88
2018-05-23T09:17:43.607Z,44.73
2018-05-23T09:20:10.076Z,44.59
2018-05-23T09:22:36.716Z,44.63
2018-05-23T09:25:03.394Z,44.31
2018-05-23T09:27:29.811Z,44.23
2018-05-23T09:29:57.320Z,44.36
2018-05-23T09:32:23.886Z,44.37
2018-05-23T09:34:50.613Z,44.41
2018-05-23T09:37:17.199Z,44.64
2018-05-23T09:39:43.748Z,44.41
2018-05-23T09:42:10.150Z,44.08
2018-05-23T09:44:37.691Z,44.71
2018-05-23T09:47:06.049Z,44.77
2018-05-23T09:49:33.016Z,44.42
2018-05-23T09:51:59.675Z,44.44
2018-05-23T09:54:26.542Z,44.11
2018-05-23T09:56:53.085Z,43.71
2018-05-23T09:59:19.647Z,43.78
2018-05-23T10:01:46.648Z,44.34
2018-05-23T10:04:13.490Z,43.63
2018-05-23T10:06:39.863Z,44.04
2018-05-23T10:09:06.342Z,43.95
2018-05-23T10:11:32.812Z,44.22
2018-05-23T10:13:59.363Z,43.83
2018-05-23T10:16:25.971Z,43.44
2018-05-23T10:18:53.223Z,43.15
2018-05-23T10:21:19.915Z,43.55
2018-05-23T10:23:47.764Z,43.48
2018-05-23T10:26:14.339Z,43.70
2018-05-23T10:28:40.933Z,43.85
2018-05-23T10:31:07.449Z,43.58
2018-05-23T10:33:34.069Z,43.74
2018-05-23T10:36:00.760Z,43.80
2018-05-23T10:38:27.203Z,43.85
2018-05-23T10:40:54.109Z,43.98
2018-05-23T10:43:20.947Z,43.48
2018-05-23T10:45:50.373Z,43.53
2018-05-23T10:48:16.753Z,43.96
2018-05-23T10:50:44.318Z,43.78
2018-05-23T10:53:11.098Z,43.80
2018-05-23T10:55:37.821Z,43.68
2018-05-23T10:58:04.457Z,43.55
2018-05-23T11:00:30.840Z,43.89
2018-05-23T11:02:57.420Z,43.69
2018-05-23T11:05:23.797Z,44.00
2018-05-23T11:07:50.212Z,44.04
2018-05-23T11:10:16.674Z,43.74
2018-05-23T11:12:43.072Z,43.71
2018-05-23T11:15:09.400Z,43.87
2018-05-23T11:17:35.910Z,43.61
2018-05-23T11:20:02.349Z,43.63
2018-05-23T11:22:29.020Z,43.72
2018-05-23T11:24:56.211Z,43.77
2018-05-23T11:27:22.997Z,43.77
2018-05-23T11:29:50.000Z,43.63
2018-05-23T11:32:16.480Z,43.66
2018-05-23T11:34:43.065Z,43.72
2018-05-23T11:37:09.772Z,43.85
2018-05-23T11:39:36.227Z,43.85
2018-05-23T11:42:02.750Z,43.84
2018-05-23T11:44:29.386Z,43.83
2018-05-23T11:46:56.236Z,43.96
2018-05-23T11:49:22.787Z,43.49
2018-05-23T11:51:49.375Z,43.52
2018-05-23T11:54:15.764Z,44.04
2018-05-23T11:56:42.320Z,44.12
2018-05-23T11:59:08.826Z,43.71
2018-05-23T12:01:35.205Z,43.60
2018-05-23T12:04:02.460Z,43.86
2018-05-23T12:06:28.832Z,43.33
2018-05-23T12:08:55.375Z,43.73
2018-05-23T12:11:21.791Z,44.11
2018-05-23T12:13:48.141Z,44.01
2018-05-23T12:16:14.503Z,43.75
2018-05-23T12:18:41.009Z,44.53
2018-05-23T12:21:07.451Z,44.54
2018-05-23T12:23:33.958Z,43.93
2018-05-23T12:26:00.368Z,43.81
2018-05-23T12:28:26.792Z,44.20
2018-05-23T12:30:53.163Z,43.99
2018-05-23T12:33:19.650Z,44.18
2018-05-23T12:35:46.025Z,44.25
2018-05-23T12:38:12.402Z,43.83
2018-05-23T12:40:38.802Z,44.10
2018-05-23T12:43:05.298Z,44.23
2018-05-23T12:45:31.682Z,44.03
2018-05-23T12:47:59.335Z,43.83
2018-05-23T12:50:26.181Z,44.13
2018-05-23T12:52:52.552Z,43.81
2018-05-23T12:55:19.051Z,44.35
2018-05-23T12:57:45.419Z,44.16
2018-05-23T13:00:11.873Z,44.23
2018-05-23T13:02:38.235Z,44.16
2018-05-23T13:05:04.685Z,44.00
2018-05-23T13:07:31.209Z,44.17
2018-05-23T13:09:57.565Z,44.22
2018-05-23T13:12:24.097Z,44.26
2018-05-23T13:14:50.405Z,44.17
2018-05-23T13:17:16.783Z,44.15
2018-05-23T13:19:43.290Z,44.23
2018-05-23T13:22:09.686Z,44.14
2018-05-23T13:24:36.196Z,44.21
2018-05-23T13:27:02.659Z,44.32
2018-05-23T13:29:29.119Z,44.31
2018-05-23T13:31:55.502Z,44.39
2018-05-23T13:34:21.857Z,44.40
2018-05-23T13:36:48.213Z,44.42
2018-05-23T13:39:14.566Z,44.42
2018-05-23T13:41:41.063Z,44.40
2018-05-23T13:44:07.503Z,44.59
2018-05-23T13:46:33.890Z,44.56
2018-05-23T13:49:00.248Z,44.74
2018-05-23T13:51:26.608Z,44.69
2018-05-23T13:53:52.937Z,44.84
2018-05-23T13:56:19.441Z,44.88
2018-05-23T13:58:45.825Z,44.87
2018-05-23T14:01:12.166Z,44.92
2018-05-23T14:03:38.612Z,44.87
2018-05-23T14:06:06.082Z,45.21
2018-05-23T14:08:32.579Z,45.26
2018-05-23T14:10:58.948Z,45.25
2018-05-23T14:13:25.340Z,45.18
2018-05-23T14:15:51.684Z,45.32
2018-05-23T14:18:18.008Z,45.18
2018-05-23T14:20:44.400Z,45.41
2018-05-23T14:23:10.925Z,45.36
2018-05-23T14:25:37.248Z,45.34
2018-05-23T14:28:03.702Z,45.44
2018-05-23T14:30:30.070Z,45.56
2018-05-23T14:32:56.630Z,45.33
2018-05-23T14:35:22.964Z,45.51
2018-05-23T14:37:49.329Z,45.63
2018-05-23T14:40:15.692Z,45.36
2018-05-23T14:42:42.038Z,45.46
2018-05-23T14:45:08.577Z,45.39
2018-05-23T14:47:34.945Z,45.39
2018-05-23T14:50:01.388Z,45.32
2018-05-23T14:52:27.702Z,45.08
2018-05-23T14:54:54.130Z,45.21
2018-05-23T14:57:20.501Z,44.80
2018-05-23T14:59:46.942Z,44.70
2018-05-23T15:02:13.410Z,44.68
2018-05-23T15:04:39.930Z,44.76
2018-05-23T15:07:06.307Z,44.57
2018-05-23T15:09:32.896Z,44.88
2018-05-23T15:11:59.479Z,44.68
2018-05-23T15:14:25.867Z,44.52
2018-05-23T15:16:52.204Z,44.52
2018-05-23T15:19:18.541Z,44.53
2018-05-23T15:21:45.568Z,44.14
2018-05-23T15:24:11.917Z,44.23
2018-05-23T15:26:38.322Z,44.29
2018-05-23T15:29:05.318Z,44.14
2018-05-23T15:31:32.269Z,44.34
2018-05-23T15:33:58.912Z,44.28
2018-05-23T15:36:25.256Z,44.09
2018-05-23T15:38:51.645Z,44.15
2018-05-23T15:41:18.029Z,44.21
2018-05-23T15:43:44.361Z,43.88
2018-05-23T15:46:10.733Z,44.09
2018-05-23T15:48:37.242Z,43.91
2018-05-23T15:51:03.625Z,43.60
2018-05-23T15:53:30.038Z,43.79
2018-05-23T15:55:56.388Z,43.32
2018-05-23T15:58:22.734Z,43.60
2018-05-23T16:00:49.076Z,43.48
2018-05-23T16:03:15.436Z,43.55
2018-05-23T16:05:41.884Z,43.03
2018-05-23T16:08:08.316Z,43.24
2018-05-23T16:10:34.677Z,43.19
2018-05-23T16:13:01.097Z,43.18
2018-05-23T16:15:31.487Z,43.14
2018-05-23T16:17:58.206Z,42.86
2018-05-23T16:20:24.616Z,42.81
2018-05-23T16:22:50.954Z,42.83
2018-05-23T16:25:17.309Z,42.70
2018-05-23T16:27:43.706Z,42.56
2018-05-23T16:30:10.198Z,42.47
2018-05-23T16:32:36.597Z,42.61
2018-05-23T16:35:03.221Z,42.55
2018-05-23T16:37:29.605Z,42.64
2018-05-23T16:40:03.692Z,42.41
2018-05-23T16:42:30.085Z,42.73
2018-05-23T16:44:56.419Z,42.62
2018-05-23T16:47:31.357Z,42.29
2018-05-23T16:49:57.797Z,42.53
2018-05-23T16:52:24.150Z,42.48
2018-05-23T16:54:50.615Z,42.40
2018-05-23T16:57:17.091Z,42.27
2018-05-23T17:09:57.244Z,42.33
2018-05-23T17:12:23.615Z,42.17
2018-05-23T17:14:50.006Z,42.14
2018-05-23T17:17:17.935Z,42.08
2018-05-23T17:35:27.976Z,41.69
2018-05-23T17:37:54.293Z,42.13
2018-05-23T17:56:03.981Z,42.14
2018-05-23T17:58:30.426Z,42.30
2018-05-23T18:16:41.402Z,42.53
2018-05-23T18:37:31.227Z,42.48
2018-05-23T18:52:49.157Z,42.57
2018-05-23T18:57:46.902Z,42.63
2018-05-23T19:18:35.008Z,42.72
2018-05-23T19:21:01.336Z,42.75
2018-05-23T19:23:27.652Z,42.69
2018-05-23T19:25:53.974Z,42.76
2018-05-23T19:28:20.434Z,42.58
2018-05-23T19:30:47.050Z,42.77
2018-05-23T19:33:13.502Z,42.89
2018-05-23T19:35:39.982Z,42.70
2018-05-23T19:38:06.388Z,42.56
2018-05-23T19:40:33.052Z,42.72
2018-05-23T19:42:59.436Z,42.70
2018-05-23T19:45:25.895Z,42.63
2018-05-23T19:47:52.212Z,42.63
2018-05-23T19:50:18.660Z,42.83
2018-05-23T19:52:45.212Z,42.85
2018-05-23T19:55:11.487Z,42.71
2018-05-23T19:57:37.829Z,42.76
2018-05-23T20:00:04.262Z,42.93
2018-05-23T20:02:30.809Z,42.95
2018-05-23T20:04:57.187Z,43.04
2018-05-23T20:07:23.540Z,42.96
2018-05-23T20:09:49.905Z,43.00
2018-05-23T20:12:16.305Z,43.32
2018-05-23T20:14:42.616Z,43.14
2018-05-23T20:17:08.981Z,43.23
2018-05-23T20:19:35.314Z,43.30
2018-05-23T20:22:01.689Z,43.35
2018-05-23T20:24:28.018Z,43.56
2018-05-23T20:26:54.327Z,43.43
2018-05-23T20:32:00.208Z,43.48
2018-05-23T20:34:26.590Z,43.47
2018-05-23T20:36:52.919Z,43.60
2018-05-23T20:39:19.239Z,43.64
2018-05-23T20:41:45.558Z,43.78
2018-05-23T20:44:11.892Z,43.71
2018-05-23T20:46:38.223Z,43.70
2018-05-23T20:49:04.548Z,43.75
2018-05-23T20:51:30.885Z,43.60
2018-05-23T20:53:57.240Z,43.90
2018-05-23T20:56:23.613Z,43.78
2018-05-23T20:58:50.014Z,43.88
2018-05-23T21:01:16.371Z,43.93
2018-05-23T21:03:42.708Z,43.90
2018-05-23T21:06:09.083Z,44.04
2018-05-23T21:08:35.449Z,43.99
2018-05-23T21:11:01.826Z,44.01
2018-05-23T21:13:28.152Z,43.97
2018-05-23T21:15:54.468Z,43.81
2018-05-23T21:18:21.033Z,43.87
2018-05-23T21:20:48.524Z,43.82
2018-05-23T21:23:15.091Z,44.04
2018-05-23T21:28:13.904Z,44.10
2018-05-23T21:30:48.044Z,43.95
2018-05-23T21:33:14.582Z,44.08
2018-05-23T21:35:40.945Z,43.95
2018-05-23T21:38:07.408Z,44.04
2018-05-23T21:40:34.847Z,44.09
2018-05-23T21:43:01.295Z,44.21
2018-05-23T21:45:27.619Z,44.21
2018-05-23T21:47:53.948Z,44.26
2018-05-23T21:50:22.050Z,44.13
2018-05-23T21:52:48.383Z,44.21
2018-05-23T21:55:14.702Z,44.13
2018-05-23T21:57:41.020Z,44.13
2018-05-23T22:00:07.347Z,44.24
2018-05-23T22:02:33.856Z,44.22
2018-05-23T22:05:01.023Z,44.20
2018-05-23T22:07:27.375Z,44.37
2018-05-23T22:10:01.357Z,44.33
2018-05-23T22:12:27.735Z,44.16
2018-05-23T22:14:54.053Z,44.30
2018-05-23T22:17:20.643Z,44.36
2018-05-23T22:19:47.209Z,44.26
2018-05-23T22:22:13.561Z,44.09
2018-05-23T22:24:39.978Z,44.35
2018-05-23T22:27:06.331Z,44.27
2018-05-23T22:29:32.690Z,44.32
2018-05-23T22:31:59.009Z,44.50
2018-05-23T22:34:25.408Z,44.49
2018-05-23T22:36:51.752Z,44.22
2018-05-23T22:39:27.035Z,44.41
2018-05-23T22:41:53.383Z,44.53
2018-05-23T22:44:19.801Z,44.15
2018-05-23T22:46:46.129Z,44.19
2018-05-23T22:49:12.595Z,44.49
2018-05-23T22:51:38.932Z,44.62
2018-05-23T22:54:05.312Z,44.30
2018-05-23T22:56:31.639Z,44.27
2018-05-23T22:58:58.277Z,44.38
2018-05-23T23:01:24.598Z,44.40
2018-05-23T23:03:51.007Z,44.31
2018-05-23T23:06:17.619Z,44.37
2018-05-23T23:08:44.020Z,44.39
2018-05-23T23:11:10.344Z,44.28
2018-05-23T23:13:36.664Z,44.25
2018-05-23T23:16:02.993Z,44.33
2018-05-23T23:18:29.450Z,44.50
2018-05-23T23:20:55.811Z,44.67
2018-05-23T23:23:22.200Z,44.68
2018-05-23T23:25:48.726Z,44.54
2018-05-23T23:28:15.368Z,44.67
2018-05-23T23:30:49.715Z,44.69
2018-05-23T23:33:16.133Z,44.73
2018-05-23T23:35:42.569Z,44.74
2018-05-23T23:38:08.941Z,44.77
2018-05-23T23:40:35.356Z,44.67
2018-05-23T23:43:01.755Z,44.65
2018-05-23T23:45:28.233Z,44.81
2018-05-23T23:47:54.562Z,44.84
2018-05-23T23:50:20.879Z,44.92
2018-05-23T23:52:47.268Z,44.80
2018-05-23T23:55:13.756Z,44.93
2018-05-23T23:57:40.219Z,44.89
